createdAt,value
2023-01-17T00:02:10.433Z,68.30
2023-01-17T00:04:56.264Z,68.58
2023-01-17T00:07:43.253Z,68.12
2023-01-17T00:10:13.268Z,68.33
2023-01-17T00:12:40.413Z,68.38
2023-01-17T00:15:08.057Z,68.34
2023-01-17T00:17:35.077Z,68.35
2023-01-17T00:20:20.516Z,68.11
2023-01-17T00:23:06.281Z,68.25
2023-01-17T00:25:56.472Z,68.85
2023-01-17T00:28:24.717Z,68.51
2023-01-17T00:30:51.779Z,68.46
2023-01-17T00:33:19.826Z,68.64
2023-01-17T00:35:47.018Z,68.97
2023-01-17T00:38:19.726Z,68.98
2023-01-17T00:40:47.474Z,68.90
2023-01-17T00:43:36.720Z,68.89
2023-01-17T00:46:22.983Z,68.80
2023-01-17T00:49:09.056Z,68.47
2023-01-17T00:51:55.782Z,68.93
2023-01-17T00:54:41.800Z,68.38
2023-01-17T00:57:27.473Z,68.80
2023-01-17T01:00:13.137Z,68.45
2023-01-17T01:02:59.198Z,68.56
2023-01-17T01:05:45.075Z,68.12
2023-01-17T01:08:49.751Z,68.20
2023-01-17T01:11:38.291Z,68.23
2023-01-17T01:14:25.723Z,68.38
2023-01-17T01:17:11.382Z,68.55
2023-01-17T01:19:57.018Z,68.54
2023-01-17T01:22:42.637Z,68.05
2023-01-17T01:25:28.423Z,68.14
2023-01-17T01:28:25.755Z,68.06
2023-01-17T01:31:11.618Z,68.13
2023-01-17T01:33:38.795Z,68.14
2023-01-17T01:36:09.067Z,68.07
2023-01-17T01:38:36.300Z,68.40
2023-01-17T01:41:03.307Z,68.61
2023-01-17T01:43:46.944Z,68.37
2023-01-17T01:46:22.363Z,68.07
2023-01-17T01:48:49.625Z,68.37
2023-01-17T01:51:22.107Z,68.32
2023-01-17T01:53:52.800Z,68.13
2023-01-17T01:56:23.556Z,68.15
2023-01-17T01:58:52.604Z,68.20
2023-01-17T02:01:20.438Z,68.21
2023-01-17T02:03:48.291Z,68.21
2023-01-17T02:06:15.321Z,67.87
2023-01-17T02:08:42.879Z,68.33
2023-01-17T02:11:10.025Z,68.58
2023-01-17T02:13:37.220Z,68.99
2023-01-17T02:16:38.896Z,68.94
2023-01-17T02:19:47.658Z,68.68
2023-01-17T02:22:26.163Z,68.61
2023-01-17T02:24:53.177Z,68.43
2023-01-17T02:27:27.617Z,68.92
2023-01-17T02:30:39.660Z,69.00
2023-01-17T02:33:06.726Z,69.03
2023-01-17T02:35:49.282Z,68.96
2023-01-17T02:38:42.954Z,68.58
2023-01-17T02:41:30.043Z,68.88
2023-01-17T02:43:57.298Z,68.50
2023-01-17T02:46:24.817Z,68.46
2023-01-17T02:48:52.187Z,68.78
2023-01-17T02:51:57.699Z,68.83
2023-01-17T02:54:33.759Z,68.70
2023-01-17T02:57:12.638Z,68.75
2023-01-17T02:59:58.451Z,69.05
2023-01-17T03:02:36.015Z,69.05
2023-01-17T03:05:12.737Z,69.18
2023-01-17T03:07:42.060Z,69.01
2023-01-17T03:10:11.781Z,69.06
2023-01-17T03:12:40.037Z,69.43
2023-01-17T03:15:11.006Z,68.71
2023-01-17T03:17:44.338Z,68.67
2023-01-17T03:20:11.680Z,68.53
2023-01-17T03:22:39.217Z,68.98
2023-01-17T03:25:07.267Z,69.16
2023-01-17T03:27:34.417Z,69.61
2023-01-17T03:30:02.075Z,69.59
2023-01-17T03:32:29.217Z,69.27
2023-01-17T03:34:56.344Z,69.49
2023-01-17T03:37:23.303Z,69.38
2023-01-17T03:39:50.441Z,69.39
2023-01-17T03:42:17.636Z,69.22
2023-01-17T03:44:44.641Z,69.15
2023-01-17T03:47:12.446Z,69.25
2023-01-17T03:49:40.260Z,69.52
2023-01-17T03:52:08.040Z,69.45
2023-01-17T03:54:35.098Z,69.56
2023-01-17T03:57:02.200Z,69.18
2023-01-17T03:59:29.186Z,69.30
2023-01-17T04:01:56.267Z,69.53
2023-01-17T04:04:23.318Z,69.34
2023-01-17T04:06:50.404Z,69.17
2023-01-17T04:09:17.585Z,69.33
2023-01-17T04:11:44.707Z,69.47
2023-01-17T04:14:11.724Z,69.19
2023-01-17T04:16:38.993Z,69.17
2023-01-17T04:19:06.004Z,69.47
2023-01-17T04:21:33.096Z,69.33
2023-01-17T04:24:00.158Z,69.18
2023-01-17T04:26:27.226Z,69.63
2023-01-17T04:28:54.260Z,69.70
2023-01-17T04:31:21.326Z,69.67
2023-01-17T04:33:48.489Z,69.62
2023-01-17T04:36:15.440Z,69.48
2023-01-17T04:38:42.603Z,69.43
2023-01-17T04:41:09.899Z,69.21
2023-01-17T04:43:36.899Z,69.11
2023-01-17T04:46:06.069Z,68.80
2023-01-17T04:48:33.500Z,68.99
2023-01-17T04:51:01.550Z,68.33
2023-01-17T04:53:29.037Z,68.18
2023-01-17T04:55:56.196Z,68.77
2023-01-17T04:58:23.478Z,68.70
2023-01-17T05:00:51.942Z,68.98
2023-01-17T05:03:20.597Z,69.79
2023-01-17T05:05:48.459Z,70.00
2023-01-17T05:08:15.882Z,70.26
2023-01-17T05:10:45.679Z,70.46
2023-01-17T05:13:12.850Z,70.87
2023-01-17T05:15:40.230Z,70.99
2023-01-17T05:18:09.097Z,71.00
2023-01-17T05:20:37.054Z,70.78
2023-01-17T05:23:04.337Z,70.52
2023-01-17T05:25:33.092Z,70.77
2023-01-17T05:28:00.898Z,70.51
2023-01-17T05:30:29.976Z,70.44
2023-01-17T05:32:58.621Z,70.20
2023-01-17T05:35:28.774Z,70.22
2023-01-17T05:37:56.418Z,69.83
2023-01-17T05:40:26.262Z,70.55
2023-01-17T05:42:55.858Z,70.57
2023-01-17T05:45:27.872Z,70.02
2023-01-17T05:47:56.582Z,69.89
2023-01-17T05:50:35.393Z,70.29
2023-01-17T05:53:05.692Z,70.53
2023-01-17T05:55:33.585Z,70.74
2023-01-17T05:58:01.359Z,71.04
2023-01-17T06:00:28.984Z,71.04
2023-01-17T06:02:59.816Z,71.17
2023-01-17T06:05:29.215Z,71.14
2023-01-17T06:07:56.899Z,71.03
2023-01-17T06:10:24.701Z,71.12
2023-01-17T06:13:01.734Z,71.20
2023-01-17T06:15:30.094Z,70.53
2023-01-17T06:17:57.413Z,70.36
2023-01-17T06:20:25.013Z,70.46
2023-01-17T06:22:52.338Z,70.23
2023-01-17T06:25:19.693Z,70.22
2023-01-17T06:27:47.175Z,70.17
2023-01-17T06:30:14.658Z,70.84
2023-01-17T06:32:41.858Z,71.02
2023-01-17T06:35:09.505Z,70.82
2023-01-17T06:37:36.700Z,70.45
2023-01-17T06:40:04.254Z,71.42
2023-01-17T06:42:31.534Z,71.48
2023-01-17T06:44:58.695Z,72.15
2023-01-17T06:47:25.900Z,72.28
2023-01-17T06:49:53.414Z,72.47
2023-01-17T06:52:20.614Z,72.37
2023-01-17T06:54:47.812Z,72.44
2023-01-17T06:57:15.053Z,72.35
2023-01-17T06:59:42.253Z,72.45
2023-01-17T07:02:11.254Z,72.06
2023-01-17T07:04:38.693Z,71.77
2023-01-17T07:07:06.055Z,71.84
2023-01-17T07:09:33.293Z,71.85
2023-01-17T07:12:02.322Z,71.94
2023-01-17T07:14:30.059Z,71.75
2023-01-17T07:16:57.613Z,71.75
2023-01-17T07:19:25.257Z,71.57
2023-01-17T07:21:56.141Z,71.22
2023-01-17T07:24:23.373Z,70.86
2023-01-17T07:26:53.453Z,70.47
2023-01-17T07:29:20.707Z,70.51
2023-01-17T07:31:49.298Z,70.51
2023-01-17T07:34:16.698Z,70.85
2023-01-17T07:36:43.940Z,70.44
2023-01-17T07:39:11.965Z,70.65
2023-01-17T07:41:41.584Z,70.46
2023-01-17T07:44:12.459Z,71.79
2023-01-17T07:46:40.150Z,72.51
2023-01-17T07:49:07.340Z,72.33
2023-01-17T07:51:35.462Z,72.73
2023-01-17T07:54:02.656Z,71.80
2023-01-17T07:56:29.876Z,71.93
2023-01-17T07:58:57.052Z,72.58
2023-01-17T08:01:24.478Z,72.86
2023-01-17T08:03:55.204Z,72.94
2023-01-17T08:06:25.583Z,73.04
2023-01-17T08:08:56.701Z,72.95
2023-01-17T08:11:23.987Z,72.76
2023-01-17T08:13:57.653Z,72.86
2023-01-17T08:16:28.968Z,72.64
2023-01-17T08:18:57.008Z,72.49
2023-01-17T08:21:24.815Z,72.43
2023-01-17T08:23:52.776Z,71.98
2023-01-17T08:26:22.634Z,72.20
2023-01-17T08:29:03.260Z,72.01
2023-01-17T08:31:33.464Z,71.98
2023-01-17T08:34:00.918Z,71.69
2023-01-17T08:36:28.988Z,71.62
2023-01-17T08:38:56.292Z,71.84
2023-01-17T08:41:24.692Z,71.65
2023-01-17T08:43:52.307Z,71.69
2023-01-17T08:46:20.091Z,71.40
2023-01-17T08:48:47.307Z,71.42
2023-01-17T08:51:14.653Z,71.23
2023-01-17T08:53:42.364Z,71.05
2023-01-17T08:56:09.857Z,70.61
2023-01-17T08:58:37.144Z,70.89
2023-01-17T09:01:06.162Z,70.99
2023-01-17T09:03:34.781Z,71.20
2023-01-17T09:06:13.854Z,71.48
2023-01-17T09:08:41.898Z,71.52
2023-01-17T09:11:12.152Z,71.14
2023-01-17T09:13:40.179Z,71.07
2023-01-17T09:16:08.226Z,70.56
2023-01-17T09:18:36.781Z,70.07
2023-01-17T09:21:15.504Z,69.99
2023-01-17T09:23:43.338Z,70.00
2023-01-17T09:26:29.026Z,69.49
2023-01-17T09:28:56.693Z,69.08
2023-01-17T09:31:24.742Z,69.47
2023-01-17T09:33:53.590Z,69.05
2023-01-17T09:36:22.421Z,69.81
2023-01-17T09:38:50.173Z,70.09
2023-01-17T09:41:22.453Z,70.29
2023-01-17T09:44:15.023Z,70.63
2023-01-17T09:46:47.700Z,70.99
2023-01-17T09:49:38.223Z,70.91
2023-01-17T09:52:08.518Z,71.45
2023-01-17T09:54:40.334Z,71.28
2023-01-17T09:57:32.095Z,71.07
2023-01-17T10:00:25.375Z,71.00
2023-01-17T10:03:06.434Z,70.92
2023-01-17T10:06:07.854Z,70.72
2023-01-17T10:08:43.974Z,70.59
2023-01-17T10:11:57.721Z,70.38
2023-01-17T10:14:51.974Z,70.48
2023-01-17T10:17:45.413Z,70.06
2023-01-17T10:20:36.893Z,69.74
2023-01-17T10:23:42.453Z,69.94
2023-01-17T10:26:20.973Z,69.67
2023-01-17T10:28:51.667Z,69.47
2023-01-17T10:31:27.974Z,68.84
2023-01-17T10:33:57.462Z,68.59
2023-01-17T10:36:31.938Z,68.36
2023-01-17T10:39:14.216Z,67.60
2023-01-17T10:41:45.469Z,67.11
2023-01-17T10:44:19.497Z,67.31
2023-01-17T10:47:07.213Z,67.41
2023-01-17T10:49:34.494Z,66.91
2023-01-17T10:52:06.871Z,66.97
2023-01-17T10:54:53.694Z,66.69
2023-01-17T10:57:23.783Z,66.57
2023-01-17T10:59:52.500Z,66.52
2023-01-17T11:02:26.512Z,66.33
2023-01-17T11:04:56.173Z,66.08
2023-01-17T11:07:27.016Z,66.44
2023-01-17T11:09:56.933Z,66.37
2023-01-17T11:12:42.093Z,66.02
2023-01-17T11:15:09.314Z,65.71
2023-01-17T11:17:38.933Z,65.79
2023-01-17T11:20:15.672Z,65.54
2023-01-17T11:22:49.383Z,65.20
2023-01-17T11:25:25.462Z,65.25
2023-01-17T11:28:06.622Z,65.06
2023-01-17T11:30:34.315Z,65.17
2023-01-17T11:33:21.414Z,65.40
2023-01-17T11:35:48.613Z,65.10
2023-01-17T11:38:20.780Z,65.28
2023-01-17T11:40:54.253Z,64.93
2023-01-17T11:43:26.629Z,65.05
2023-01-17T11:46:18.438Z,65.52
2023-01-17T11:48:54.990Z,65.35
2023-01-17T11:51:33.535Z,64.67
2023-01-17T11:54:40.468Z,65.11
2023-01-17T11:57:20.811Z,64.69
2023-01-17T11:59:48.864Z,64.88
2023-01-17T12:14:01.970Z,66.84
2023-01-17T12:16:53.699Z,67.20
2023-01-17T12:19:43.893Z,67.79
2023-01-17T12:22:29.934Z,68.15
2023-01-17T12:25:21.935Z,69.19
2023-01-17T12:27:52.491Z,68.76
2023-01-17T12:30:32.253Z,68.22
2023-01-17T12:33:12.412Z,68.14
2023-01-17T12:36:09.174Z,67.87
2023-01-17T12:38:39.318Z,67.66
2023-01-17T12:41:21.742Z,67.62
2023-01-17T12:43:52.893Z,67.30
2023-01-17T12:46:43.592Z,67.61
2023-01-17T12:49:16.855Z,67.51
2023-01-17T12:51:47.507Z,67.76
2023-01-17T12:54:35.535Z,67.64
2023-01-17T12:57:14.008Z,67.84
2023-01-17T12:59:47.187Z,68.02
2023-01-17T13:02:31.661Z,68.17
2023-01-17T13:05:23.936Z,68.24
2023-01-17T13:08:03.141Z,68.26
2023-01-17T13:10:36.620Z,68.09
2023-01-17T13:13:20.493Z,68.12
2023-01-17T13:15:49.834Z,67.79
2023-01-17T13:18:26.211Z,67.79
2023-01-17T13:21:08.532Z,67.89
2023-01-17T13:23:35.813Z,67.80
2023-01-17T13:26:07.700Z,67.63
2023-01-17T13:28:55.076Z,67.76
2023-01-17T13:31:22.430Z,67.52
2023-01-17T13:34:01.760Z,67.64
2023-01-17T13:36:48.374Z,67.72
2023-01-17T13:39:40.100Z,67.70
2023-01-17T13:42:39.503Z,67.89
2023-01-17T13:45:19.780Z,67.81
2023-01-17T13:47:47.332Z,67.91
2023-01-17T13:50:39.061Z,68.51
2023-01-17T13:53:27.813Z,68.34
2023-01-17T13:56:27.214Z,68.22
2023-01-17T13:59:03.100Z,67.82
2023-01-17T14:01:34.998Z,68.05
2023-01-17T14:04:04.899Z,67.82
2023-01-17T14:06:47.054Z,68.04
2023-01-17T14:09:19.972Z,67.92
2023-01-17T14:11:53.735Z,67.92
2023-01-17T14:14:42.224Z,68.30
2023-01-17T14:17:28.333Z,68.14
2023-01-17T14:20:12.736Z,68.08
2023-01-17T14:22:47.734Z,67.97
2023-01-17T14:25:17.981Z,67.81
2023-01-17T14:27:49.784Z,68.08
2023-01-17T14:30:27.706Z,67.84
2023-01-17T14:33:05.054Z,67.65
2023-01-17T14:35:56.936Z,67.71
2023-01-17T14:38:26.753Z,68.03
2023-01-17T14:40:58.174Z,68.00
2023-01-17T14:43:28.508Z,67.61
2023-01-17T14:46:28.933Z,68.04
2023-01-17T14:49:15.694Z,68.37
2023-01-17T14:51:42.976Z,68.14
2023-01-17T14:54:21.814Z,68.31
2023-01-17T14:56:49.013Z,68.67
2023-01-17T14:59:21.454Z,68.65
2023-01-17T15:02:08.220Z,68.90
2023-01-17T15:04:39.955Z,68.62
2023-01-17T15:07:12.712Z,68.92
2023-01-17T15:09:44.335Z,69.00
2023-01-17T15:12:14.750Z,68.82
2023-01-17T15:14:45.621Z,68.83
2023-01-17T15:17:21.613Z,69.29
2023-01-17T15:19:54.181Z,69.37
2023-01-17T15:22:21.980Z,69.47
2023-01-17T15:24:50.269Z,69.68
2023-01-17T15:27:18.136Z,69.99
2023-01-17T15:29:47.018Z,69.57
2023-01-17T15:32:21.174Z,69.70
2023-01-17T15:34:50.986Z,69.52
2023-01-17T15:37:36.935Z,69.83
2023-01-17T15:40:18.294Z,69.21
2023-01-17T15:42:49.180Z,69.32
2023-01-17T15:45:27.422Z,69.63
2023-01-17T15:47:55.133Z,69.45
2023-01-17T15:50:28.216Z,69.53
2023-01-17T15:53:13.575Z,69.64
2023-01-17T15:55:40.974Z,69.54
2023-01-17T15:58:29.133Z,69.50
2023-01-17T16:00:56.792Z,69.64
2023-01-17T16:03:30.731Z,69.42
2023-01-17T16:06:03.383Z,69.27
2023-01-17T16:08:33.882Z,69.74
2023-01-17T16:11:03.466Z,70.46
2023-01-17T16:13:32.660Z,70.46
2023-01-17T16:16:12.988Z,70.78
2023-01-17T16:18:41.062Z,71.08
2023-01-17T16:21:20.501Z,70.95
2023-01-17T16:23:48.614Z,70.61
2023-01-17T16:26:16.335Z,70.73
2023-01-17T16:28:43.704Z,70.52
2023-01-17T16:31:10.917Z,70.80
2023-01-17T16:33:38.295Z,70.63
2023-01-17T16:36:06.059Z,70.87
2023-01-17T16:38:33.294Z,70.87
2023-01-17T16:41:04.814Z,71.09
2023-01-17T16:43:32.137Z,70.92
2023-01-17T16:45:59.554Z,71.00
2023-01-17T16:48:26.815Z,70.85
2023-01-17T16:50:54.141Z,71.21
2023-01-17T16:53:25.200Z,71.02
2023-01-17T16:55:58.853Z,70.72
2023-01-17T16:58:26.637Z,70.74
2023-01-17T17:00:55.628Z,70.85
2023-01-17T17:03:23.216Z,71.29
2023-01-17T17:05:58.460Z,71.28
2023-01-17T17:08:25.888Z,71.28
2023-01-17T17:10:53.295Z,71.06
2023-01-17T17:13:20.740Z,71.14
2023-01-17T17:15:48.033Z,71.07
2023-01-17T17:18:17.453Z,71.00
2023-01-17T17:20:45.510Z,70.75
2023-01-17T17:23:12.915Z,70.53
2023-01-17T17:25:40.253Z,70.41
2023-01-17T17:28:07.502Z,69.97
2023-01-17T17:30:36.383Z,69.98
2023-01-17T17:33:06.421Z,69.92
2023-01-17T17:35:36.773Z,70.38
2023-01-17T17:38:06.897Z,70.44
2023-01-17T17:40:37.174Z,70.62
2023-01-17T17:43:04.452Z,70.31
2023-01-17T17:45:31.660Z,70.48
2023-01-17T17:47:58.975Z,70.69
2023-01-17T17:50:26.260Z,70.74
2023-01-17T17:52:53.655Z,70.21
2023-01-17T17:55:20.856Z,70.16
2023-01-17T17:57:48.157Z,70.00
2023-01-17T18:00:15.670Z,70.15
2023-01-17T18:02:42.854Z,69.94
2023-01-17T18:05:10.432Z,70.15
2023-01-17T18:07:37.700Z,70.46
2023-01-17T18:10:05.555Z,70.63
2023-01-17T18:12:32.738Z,71.00
2023-01-17T18:14:59.896Z,71.02
2023-01-17T18:17:27.255Z,70.95
2023-01-17T18:19:54.416Z,70.99
2023-01-17T18:22:21.754Z,71.28
2023-01-17T18:24:48.975Z,71.16
2023-01-17T18:27:16.222Z,71.43
2023-01-17T18:29:43.454Z,71.05
2023-01-17T18:32:10.621Z,71.28
2023-01-17T18:34:41.781Z,71.10
2023-01-17T18:37:09.131Z,71.35
2023-01-17T18:39:36.492Z,71.19
2023-01-17T18:42:03.775Z,71.01
2023-01-17T18:44:31.134Z,71.21
2023-01-17T18:47:02.228Z,71.05
2023-01-17T18:49:29.619Z,71.34
2023-01-17T18:51:56.899Z,71.14
2023-01-17T18:54:24.143Z,71.26
2023-01-17T18:56:51.493Z,71.26
2023-01-17T18:59:18.952Z,71.13
2023-01-17T19:01:46.789Z,70.91
2023-01-17T19:04:15.349Z,70.96
2023-01-17T19:06:44.909Z,70.75
2023-01-17T19:09:14.335Z,70.54
2023-01-17T19:11:43.334Z,70.83
2023-01-17T19:14:11.375Z,70.97
2023-01-17T19:16:40.583Z,71.18
2023-01-17T19:19:11.413Z,71.09
2023-01-17T19:21:39.294Z,71.22
2023-01-17T19:24:07.015Z,71.23
2023-01-17T19:26:34.584Z,70.89
2023-01-17T19:29:04.039Z,71.12
2023-01-17T19:31:33.109Z,70.86
2023-01-17T19:34:00.461Z,71.03
2023-01-17T19:36:33.987Z,71.13
2023-01-17T19:39:06.276Z,70.82
2023-01-17T19:41:36.315Z,71.01
2023-01-17T19:44:07.143Z,70.81
2023-01-17T19:46:35.719Z,70.75
2023-01-17T19:49:04.744Z,70.94
2023-01-17T19:51:31.938Z,70.85
2023-01-17T19:54:01.620Z,70.84
2023-01-17T19:56:29.544Z,70.84
2023-01-17T19:59:01.618Z,70.72
2023-01-17T20:01:32.470Z,70.93
2023-01-17T20:04:01.307Z,70.85
2023-01-17T20:06:32.417Z,70.70
2023-01-17T20:08:59.976Z,70.79
2023-01-17T20:11:28.464Z,70.88
2023-01-17T20:13:57.585Z,70.80
2023-01-17T20:16:26.500Z,70.70
2023-01-17T20:18:53.823Z,70.58
2023-01-17T20:21:26.515Z,70.61
2023-01-17T20:23:54.934Z,70.70
2023-01-17T20:26:31.338Z,70.89
2023-01-17T20:28:58.578Z,71.05
2023-01-17T20:31:26.134Z,71.18
2023-01-17T20:33:55.740Z,71.06
2023-01-17T20:36:29.296Z,71.27
2023-01-17T20:38:57.537Z,71.23
2023-01-17T20:41:25.721Z,71.23
2023-01-17T20:43:54.320Z,71.03
2023-01-17T20:46:25.053Z,71.11
2023-01-17T20:48:58.175Z,70.98
2023-01-17T20:51:27.777Z,71.24
2023-01-17T20:54:01.413Z,71.29
2023-01-17T20:56:34.766Z,70.99
2023-01-17T20:59:07.894Z,70.95
2023-01-17T21:01:36.475Z,70.89
2023-01-17T21:04:05.057Z,71.15
2023-01-17T21:06:32.254Z,71.00
2023-01-17T21:09:00.333Z,70.77
2023-01-17T21:11:30.921Z,71.04
2023-01-17T21:13:58.215Z,71.00
2023-01-17T21:16:28.288Z,70.82
2023-01-17T21:18:55.859Z,71.00
2023-01-17T21:21:26.148Z,71.09
2023-01-17T21:23:56.173Z,70.89
2023-01-17T21:26:26.056Z,70.96
2023-01-17T21:28:54.260Z,71.04
2023-01-17T21:31:26.100Z,71.42
2023-01-17T21:34:02.215Z,71.96
2023-01-17T21:36:33.455Z,71.99
2023-01-17T21:39:04.980Z,71.72
2023-01-17T21:41:38.534Z,72.01
2023-01-17T21:44:27.370Z,72.36
2023-01-17T21:46:56.514Z,72.13
2023-01-17T21:49:24.220Z,72.12
2023-01-17T21:51:54.591Z,72.20
2023-01-17T21:54:43.373Z,71.90
2023-01-17T21:57:30.217Z,71.80
2023-01-17T21:59:57.506Z,72.01
2023-01-17T22:02:24.879Z,72.11
2023-01-17T22:04:52.296Z,72.03
2023-01-17T22:07:19.500Z,71.92
2023-01-17T22:09:46.773Z,72.13
2023-01-17T22:12:14.056Z,72.00
2023-01-17T22:14:41.255Z,72.29
2023-01-17T22:17:09.015Z,72.01
2023-01-17T22:19:36.182Z,72.20
2023-01-17T22:22:04.356Z,72.15
2023-01-17T22:24:31.334Z,71.80
2023-01-17T22:26:58.532Z,71.72
2023-01-17T22:29:25.773Z,71.74
2023-01-17T22:31:53.016Z,71.76
2023-01-17T22:34:20.292Z,71.63
2023-01-17T22:36:47.499Z,71.62
2023-01-17T22:39:14.813Z,71.26
2023-01-17T22:41:42.060Z,71.33
2023-01-17T22:44:09.338Z,71.42
2023-01-17T22:46:40.723Z,71.26
2023-01-17T22:49:08.738Z,71.12
2023-01-17T22:51:36.186Z,71.03
2023-01-17T22:54:03.419Z,71.20
2023-01-17T22:56:33.054Z,70.96
2023-01-17T22:59:01.353Z,71.03
2023-01-17T23:01:32.854Z,71.39
2023-01-17T23:04:02.858Z,71.08
2023-01-17T23:06:38.576Z,70.99
2023-01-17T23:09:11.865Z,70.81
2023-01-17T23:11:47.512Z,70.65
2023-01-17T23:14:30.632Z,71.15
2023-01-17T23:17:17.662Z,71.45
2023-01-17T23:19:51.367Z,71.13
2023-01-17T23:22:20.951Z,70.88
2023-01-17T23:25:12.132Z,70.79
2023-01-17T23:28:03.493Z,70.80
2023-01-17T23:30:37.616Z,70.99
2023-01-17T23:33:11.138Z,71.21
2023-01-17T23:35:42.057Z,71.30
2023-01-17T23:38:26.255Z,71.50
2023-01-17T23:41:17.905Z,71.22
2023-01-17T23:43:45.101Z,71.42
2023-01-17T23:46:13.266Z,71.61
2023-01-17T23:48:40.373Z,71.50
2023-01-17T23:51:08.508Z,71.20
2023-01-17T23:53:38.132Z,71.61
2023-01-17T23:56:14.821Z,71.35
2023-01-17T23:58:42.093Z,71.19
